createdAt,value
2022-07-26T00:02:23.889Z,16.52
2022-07-26T00:12:25.724Z,15.63
2022-07-26T00:22:36.413Z,10.98
2022-07-26T00:32:39.094Z,12.53
2022-07-26T00:42:41.080Z,12.07
2022-07-26T00:52:47.181Z,11.07
2022-07-26T01:02:49.601Z,12.02
2022-07-26T01:12:51.471Z,11.77
2022-07-26T01:22:53.186Z,8.43
2022-07-26T01:32:54.848Z,9.68
2022-07-26T01:42:59.815Z,11.50
2022-07-26T01:53:01.501Z,7.85
2022-07-26T02:03:09.851Z,5.78
2022-07-26T02:13:15.580Z,9.75
2022-07-26T02:23:24.276Z,5.50
2022-07-26T02:33:27.251Z,6.40
2022-07-26T02:43:30.756Z,7.78
2022-07-26T02:53:33.103Z,10.40
2022-07-26T03:03:36.520Z,11.32
2022-07-26T03:13:38.561Z,11.13
2022-07-26T03:23:40.425Z,10.73
2022-07-26T03:33:42.332Z,13.27
2022-07-26T03:43:43.984Z,12.23
2022-07-26T03:53:45.805Z,11.45
2022-07-26T04:03:48.003Z,11.07
2022-07-26T04:13:49.857Z,18.98
2022-07-26T04:23:51.986Z,17.02
2022-07-26T04:33:53.804Z,17.52
2022-07-26T04:43:56.339Z,17.40
2022-07-26T04:54:03.245Z,16.77
2022-07-26T05:04:05.111Z,12.43
2022-07-26T05:14:09.272Z,9.73
2022-07-26T05:24:12.609Z,12.60
2022-07-26T05:34:14.745Z,17.05
2022-07-26T05:44:16.350Z,13.63
2022-07-26T05:54:22.852Z,12.00
2022-07-26T06:04:30.574Z,13.40
2022-07-26T06:14:32.389Z,14.88
2022-07-26T06:24:34.126Z,21.40
2022-07-26T06:34:49.872Z,13.63
2022-07-26T06:44:53.053Z,11.75
2022-07-26T06:54:56.120Z,16.30
2022-07-26T07:04:57.933Z,17.08
2022-07-26T07:15:06.200Z,13.30
2022-07-26T07:25:10.000Z,26.25
2022-07-26T07:35:13.249Z,11.27
2022-07-26T07:45:19.876Z,15.95
2022-07-26T07:55:46.063Z,13.98
2022-07-26T08:05:49.439Z,9.55
2022-07-26T08:15:53.823Z,9.98
2022-07-26T08:26:03.201Z,11.38
2022-07-26T08:36:09.185Z,11.15
2022-07-26T08:46:16.392Z,10.25
2022-07-26T08:56:18.135Z,16.50
2022-07-26T09:06:26.327Z,12.68
2022-07-26T09:16:30.967Z,10.25
2022-07-26T09:26:33.347Z,12.90
2022-07-26T09:36:52.591Z,9.23
2022-07-26T09:47:14.777Z,15.63
2022-07-26T09:57:22.476Z,6.50
2022-07-26T10:07:24.696Z,11.40
2022-07-26T10:17:31.810Z,12.27
2022-07-26T10:37:59.714Z,13.15
2022-07-26T10:48:29.431Z,14.48
2022-07-26T10:58:43.278Z,12.02
2022-07-26T11:08:48.468Z,17.83
2022-07-26T11:18:50.435Z,13.40
2022-07-26T11:29:06.809Z,14.48
2022-07-26T11:39:15.212Z,12.00
2022-07-26T11:49:25.097Z,13.07
2022-07-26T11:59:36.855Z,15.05
2022-07-26T12:09:46.791Z,11.82
2022-07-26T12:19:48.659Z,10.07
2022-07-26T12:29:55.684Z,10.68
2022-07-26T12:40:18.125Z,11.95
2022-07-26T12:50:23.635Z,7.53
2022-07-26T13:00:25.792Z,10.27
2022-07-26T13:10:36.360Z,7.80
2022-07-26T13:20:38.699Z,7.15
2022-07-26T13:30:47.592Z,8.70
2022-07-26T13:40:50.575Z,7.57
2022-07-26T13:50:55.545Z,7.88
2022-07-26T14:01:02.638Z,9.98
2022-07-26T14:11:05.234Z,9.15
2022-07-26T14:21:10.493Z,8.63
2022-07-26T14:31:12.726Z,12.02
2022-07-26T14:41:16.227Z,12.05
2022-07-26T14:51:22.509Z,10.07
2022-07-26T15:01:24.332Z,11.80
2022-07-26T15:11:26.171Z,11.90
2022-07-26T15:21:28.755Z,14.82
2022-07-26T15:31:36.999Z,14.40
2022-07-26T15:41:39.386Z,13.23
2022-07-26T15:51:43.716Z,11.88
2022-07-26T16:01:47.252Z,12.23
2022-07-26T16:11:50.247Z,12.60
2022-07-26T16:21:52.244Z,12.45
2022-07-26T16:31:56.437Z,16.05
2022-07-26T16:42:07.133Z,23.90
2022-07-26T16:52:11.300Z,14.43
2022-07-26T17:02:13.232Z,15.90
2022-07-26T17:12:16.695Z,16.48
2022-07-26T17:22:18.709Z,15.18
2022-07-26T17:32:20.533Z,17.80
2022-07-26T17:42:22.982Z,21.65
2022-07-26T17:52:24.576Z,19.23
2022-07-26T18:02:34.720Z,17.33
2022-07-26T18:12:36.444Z,17.45
2022-07-26T18:22:39.466Z,18.70
2022-07-26T18:32:41.142Z,19.23
2022-07-26T18:42:51.709Z,18.88
2022-07-26T18:52:53.319Z,20.80
2022-07-26T19:02:57.944Z,20.25
2022-07-26T19:12:59.786Z,21.02
2022-07-26T19:23:01.593Z,21.65
2022-07-26T19:33:04.189Z,22.08
2022-07-26T19:43:09.128Z,20.65
2022-07-26T19:53:16.312Z,21.48
2022-07-26T20:03:19.005Z,19.42
2022-07-26T20:13:20.859Z,25.70
2022-07-26T20:23:25.710Z,16.98
2022-07-26T20:33:38.063Z,16.38
2022-07-26T20:43:39.873Z,15.25
2022-07-26T20:53:42.287Z,13.43
2022-07-26T21:03:44.549Z,13.15
2022-07-26T21:13:54.040Z,11.77
2022-07-26T21:24:04.458Z,12.93
2022-07-26T21:34:06.177Z,12.57
2022-07-26T21:44:09.484Z,10.52
2022-07-26T21:54:12.348Z,11.05
2022-07-26T22:04:14.019Z,11.10
2022-07-26T22:14:17.438Z,8.45
2022-07-26T22:24:19.252Z,8.80
2022-07-26T22:34:21.105Z,7.35
2022-07-26T22:44:25.089Z,8.38
2022-07-26T22:54:26.834Z,7.28
2022-07-26T23:04:28.532Z,10.32
2022-07-26T23:14:30.475Z,7.45
2022-07-26T23:24:32.307Z,7.20
2022-07-26T23:34:34.988Z,9.52
2022-07-26T23:44:36.808Z,9.32
2022-07-26T23:54:41.928Z,6.57
